Date,TemperatureHighF,TemperatureAvgF,TemperatureLowF,DewpointHighF,DewpointAvgF,DewpointLowF,HumidityHigh,HumidityAvg,HumidityLow,PressureMaxIn,PressureMinIn,WindSpeedMaxMPH,WindSpeedAvgMPH,GustSpeedMaxMPH,PrecipitationSumIn
2013-11-1,63,52,42,45,40,37,89,67,45,30.12,29.74,21,6,21,0.00
2013-11-2,60,47,39,38,35,30,83,65,35,30.31,30.12,14,4,14,0.00
2013-11-3,62,51,41,43,38,34,78,63,46,30.16,29.82,28,10,28,0.00
2013-11-4,63,54,48,53,46,43,89,75,51,30.05,29.80,20,5,20,0.00
2013-11-5,60,55,40,60,54,38,100,96,89,30.08,29.82,23,8,23,0.47
2013-11-6,47,40,34,39,35,33,97,85,64,30.39,30.08,24,7,24,0.00
2013-11-7,60,44,32,42,37,31,99,78,44,30.50,30.32,10,2,10,0.00
2013-11-8,66,51,37,40,37,34,96,63,33,30.32,29.89,34,10,35,0.00
2013-11-9,64,50,38,47,41,36,95,73,44,30.30,30.00,12,2,12,0.00
2013-11-10,63,51,39,50,44,37,98,78,53,30.39,30.24,14,3,14,0.00
2013-11-11,57,47,29,53,44,21,95,87,72,30.67,30.17,26,8,26,0.00
2013-11-12,36,27,20,21,16,12,89,64,37,30.94,30.67,18,7,18,0.00
2013-11-13,51,35,20,28,22,17,91,60,40,30.75,30.22,20,9,20,0.00
2013-11-14,57,44,35,34,30,21,74,59,42,30.22,29.96,22,9,22,0.00
2013-11-15,61,48,33,49,40,30,96,76,52,29.98,29.67,20,7,20,0.00
2013-11-16,77,64,52,57,54,46,93,72,41,29.67,29.36,26,13,26,0.00
2013-11-17,66,57,47,46,31,15,71,41,16,30.10,29.36,31,12,31,0.00
2013-11-18,62,45,30,32,27,20,90,52,22,30.31,30.07,12,2,12,0.00
2013-11-19,60,50,42,38,32,28,69,50,36,30.24,29.89,26,10,26,0.00
2013-11-20,60,54,49,50,42,30,78,63,45,29.91,29.78,21,9,21,0.00
2013-11-21,53,38,25,52,35,21,97,90,78,30.55,29.88,26,12,26,0.21
2013-11-22,29,26,23,21,18,16,84,73,57,30.74,30.55,29,12,29,0.00
2013-11-23,35,30,22,22,17,13,70,59,53,30.83,30.69,12,5,20,0.00
2013-11-24,29,24,20,16,13,11,74,63,48,30.79,30.38,7,2,15,0.00
2013-11-25,37,30,25,29,23,16,93,75,62,30.38,30.25,6,2,13,0.00
2013-11-26,39,31,23,28,21,12,92,68,41,30.52,30.27,21,6,25,0.00
2013-11-27,39,27,13,22,16,10,86,65,44,30.53,30.25,10,3,15,0.00
2013-11-28,48,35,22,31,25,20,91,68,47,30.49,30.23,7,3,13,0.00
2013-11-29,55,39,22,35,28,19,91,68,45,30.49,30.21,10,3,17,0.00
2013-11-30,61,42,30,40,34,28,96,74,43,30.22,30.10,8,2,16,0.00